createdAt,value
2023-05-06T00:01:53.576Z,99119.28
2023-05-06T00:04:20.228Z,99111.66
2023-05-06T00:06:47.172Z,99109.97
2023-05-06T00:09:13.769Z,99104.69
2023-05-06T00:11:40.637Z,99098.66
2023-05-06T00:14:07.248Z,99099.06
2023-05-06T00:16:33.941Z,99099.22
2023-05-06T00:19:00.689Z,99103.50
2023-05-06T00:21:27.694Z,99097.19
2023-05-06T00:23:54.246Z,99087.31
2023-05-06T00:26:21.100Z,99097.88
2023-05-06T00:28:47.787Z,99089.13
2023-05-06T00:31:36.213Z,99092.94
2023-05-06T00:34:02.899Z,99084.94
2023-05-06T00:36:30.082Z,99074.47
2023-05-06T00:38:56.747Z,99081.97
2023-05-06T00:41:23.517Z,99077.25
2023-05-06T00:43:50.060Z,99088.94
2023-05-06T00:46:20.116Z,99091.09
2023-05-06T00:48:46.903Z,99087.00
2023-05-06T00:51:14.118Z,99084.97
2023-05-06T00:53:41.068Z,99095.75
2023-05-06T00:56:07.810Z,99097.31
2023-05-06T00:58:35.059Z,99089.72
2023-05-06T01:01:02.211Z,99085.63
2023-05-06T01:03:29.296Z,99089.03
2023-05-06T01:05:59.043Z,99078.31
2023-05-06T01:08:32.277Z,99077.97
2023-05-06T01:11:07.307Z,99080.69
2023-05-06T01:13:59.436Z,99081.53
2023-05-06T01:16:29.490Z,99082.75
2023-05-06T01:19:00.345Z,99090.66
2023-05-06T01:21:34.642Z,99086.31
2023-05-06T01:24:01.977Z,99087.78
2023-05-06T01:26:28.603Z,99099.00
2023-05-06T01:28:57.123Z,99094.84
2023-05-06T01:31:32.101Z,99100.38
2023-05-06T01:34:10.287Z,99090.72
2023-05-06T01:37:01.870Z,99092.78
2023-05-06T01:39:31.998Z,99089.13
2023-05-06T01:42:01.994Z,99090.56
2023-05-06T01:44:33.787Z,99091.16
2023-05-06T01:47:02.407Z,99093.47
2023-05-06T01:49:30.234Z,99087.66
2023-05-06T01:51:57.896Z,99101.66
2023-05-06T01:54:24.572Z,99098.59
2023-05-06T01:56:51.443Z,99103.88
2023-05-06T01:59:18.078Z,99099.63
2023-05-06T02:01:45.293Z,99097.41
2023-05-06T02:04:11.971Z,99104.47
2023-05-06T02:06:39.381Z,99101.91
2023-05-06T02:09:06.280Z,99105.91
2023-05-06T02:11:37.968Z,99106.19
2023-05-06T02:14:06.790Z,99107.44
2023-05-06T02:16:34.273Z,99109.41
2023-05-06T02:19:01.077Z,99097.22
2023-05-06T02:21:28.250Z,99103.34
2023-05-06T02:23:54.920Z,99103.50
2023-05-06T02:26:21.547Z,99103.16
2023-05-06T02:28:48.437Z,99109.50
2023-05-06T02:31:15.843Z,99100.66
2023-05-06T02:33:42.775Z,99101.94
2023-05-06T02:36:11.261Z,99100.75
2023-05-06T02:38:37.850Z,99098.09
2023-05-06T02:41:04.565Z,99099.13
2023-05-06T02:43:31.203Z,99103.44
2023-05-06T02:47:00.862Z,99100.53
2023-05-06T02:49:27.558Z,99099.94
2023-05-06T02:51:54.324Z,99092.19
2023-05-06T02:54:20.937Z,99098.38
2023-05-06T02:56:47.539Z,99099.56
2023-05-06T02:59:14.122Z,99102.22
2023-05-06T03:01:40.887Z,99107.63
2023-05-06T03:04:07.574Z,99102.22
2023-05-06T03:06:34.203Z,99107.91
2023-05-06T03:09:01.005Z,99110.06
2023-05-06T03:11:30.780Z,99107.22
2023-05-06T03:14:00.005Z,99104.81
2023-05-06T03:16:26.763Z,99104.19
2023-05-06T03:18:57.127Z,99112.44
2023-05-06T03:21:24.234Z,99109.25
2023-05-06T03:23:52.415Z,99108.44
2023-05-06T03:26:21.916Z,99114.59
2023-05-06T03:28:48.666Z,99123.63
2023-05-06T03:31:19.130Z,99120.81
2023-05-06T03:33:46.156Z,99124.13
2023-05-06T03:36:16.419Z,99118.03
2023-05-06T03:38:45.584Z,99127.25
2023-05-06T03:41:12.821Z,99130.41
2023-05-06T03:43:40.004Z,99128.63
2023-05-06T03:46:07.811Z,99128.06
2023-05-06T03:48:36.593Z,99129.34
2023-05-06T03:51:06.889Z,99129.59
2023-05-06T03:53:33.756Z,99139.06
2023-05-06T03:56:01.700Z,99131.69
2023-05-06T03:58:29.946Z,99128.19
2023-05-06T04:01:00.042Z,99129.94
2023-05-06T04:03:27.891Z,99135.09
2023-05-06T04:05:55.236Z,99134.59
2023-05-06T04:08:25.688Z,99129.34
2023-05-06T04:10:53.443Z,99134.59
2023-05-06T04:13:28.756Z,99132.97
2023-05-06T04:15:58.372Z,99128.63
2023-05-06T04:18:31.644Z,99134.06
2023-05-06T04:21:03.485Z,99136.94
2023-05-06T04:23:32.797Z,99137.78
2023-05-06T04:25:59.704Z,99139.66
2023-05-06T04:28:28.241Z,99142.31
2023-05-06T04:30:55.058Z,99142.19
2023-05-06T04:33:27.450Z,99148.09
2023-05-06T04:35:57.254Z,99149.72
2023-05-06T04:38:25.906Z,99150.44
2023-05-06T04:40:53.969Z,99156.09
2023-05-06T04:43:20.719Z,99154.84
2023-05-06T04:45:50.980Z,99154.28
2023-05-06T04:48:23.058Z,99156.75
2023-05-06T04:50:51.550Z,99156.22
2023-05-06T04:53:18.292Z,99159.13
2023-05-06T04:55:44.923Z,99168.75
2023-05-06T04:58:11.734Z,99160.94
2023-05-06T05:00:38.788Z,99167.66
2023-05-06T05:03:05.663Z,99166.91
2023-05-06T05:05:34.214Z,99177.03
2023-05-06T05:08:01.515Z,99172.22
2023-05-06T05:10:31.542Z,99170.25
2023-05-06T05:12:59.375Z,99171.28
2023-05-06T05:15:26.034Z,99178.25
2023-05-06T05:17:52.742Z,99172.22
2023-05-06T05:20:22.372Z,99171.81
2023-05-06T05:22:49.081Z,99173.56
2023-05-06T05:25:15.894Z,99166.56
2023-05-06T05:27:43.146Z,99171.28
2023-05-06T05:30:10.535Z,99166.81
2023-05-06T05:32:39.075Z,99175.22
2023-05-06T05:35:06.677Z,99174.06
2023-05-06T05:37:33.604Z,99184.50
2023-05-06T05:40:01.598Z,99182.28
2023-05-06T05:42:33.720Z,99179.38
2023-05-06T05:45:05.692Z,99185.16
2023-05-06T05:47:34.901Z,99188.41
2023-05-06T05:50:02.628Z,99189.78
2023-05-06T05:52:30.349Z,99187.81
2023-05-06T05:54:57.345Z,99192.44
2023-05-06T05:57:24.414Z,99191.81
2023-05-06T05:59:52.036Z,99190.72
2023-05-06T06:02:18.926Z,99187.97
2023-05-06T06:04:46.730Z,99194.25
2023-05-06T06:07:13.495Z,99191.34
2023-05-06T06:09:42.576Z,99195.00
2023-05-06T06:12:09.522Z,99195.47
2023-05-06T06:14:40.063Z,99195.75
2023-05-06T06:17:07.325Z,99191.81
2023-05-06T06:19:34.558Z,99199.47
2023-05-06T06:22:02.458Z,99203.97
2023-05-06T06:24:34.755Z,99193.66
2023-05-06T06:27:01.541Z,99192.03
2023-05-06T06:29:28.354Z,99189.81
2023-05-06T06:31:56.389Z,99194.66
2023-05-06T06:34:23.408Z,99202.97
2023-05-06T06:36:50.119Z,99199.84
2023-05-06T06:39:16.745Z,99204.41
2023-05-06T06:41:43.683Z,99201.41
2023-05-06T06:44:10.334Z,99199.78
2023-05-06T06:46:37.017Z,99209.59
2023-05-06T06:49:03.623Z,99209.34
2023-05-06T06:51:31.384Z,99208.44
2023-05-06T06:53:57.973Z,99207.38
2023-05-06T06:56:24.549Z,99204.44
2023-05-06T06:58:53.281Z,99196.25
2023-05-06T07:01:20.437Z,99206.34
2023-05-06T07:03:47.193Z,99211.59
2023-05-06T07:06:13.934Z,99205.00
2023-05-06T07:08:40.768Z,99215.41
2023-05-06T07:11:07.363Z,99215.22
2023-05-06T07:13:33.980Z,99211.13
2023-05-06T07:16:00.691Z,99217.69
2023-05-06T07:18:27.385Z,99211.84
2023-05-06T07:20:53.997Z,99214.31
2023-05-06T07:23:20.579Z,99213.97
2023-05-06T07:25:47.337Z,99214.94
2023-05-06T07:28:14.556Z,99213.41
2023-05-06T07:30:41.595Z,99211.22
2023-05-06T07:33:08.235Z,99211.44
2023-05-06T07:35:34.954Z,99209.72
2023-05-06T07:38:01.578Z,99206.91
2023-05-06T07:40:28.237Z,99207.50
2023-05-06T07:42:55.214Z,99215.56
2023-05-06T07:45:24.336Z,99216.16
2023-05-06T07:47:51.489Z,99222.78
2023-05-06T07:50:18.424Z,99220.81
2023-05-06T07:52:45.093Z,99220.81
2023-05-06T07:55:12.134Z,99220.81
2023-05-06T07:57:38.926Z,99227.03
2023-05-06T08:00:06.327Z,99230.00
2023-05-06T08:02:44.129Z,99226.19
2023-05-06T08:05:11.335Z,99234.66
2023-05-06T08:07:42.225Z,99226.69
2023-05-06T08:10:09.944Z,99236.91
2023-05-06T08:12:36.963Z,99237.34
2023-05-06T08:15:04.057Z,99237.09
2023-05-06T08:17:30.831Z,99230.03
2023-05-06T08:19:57.537Z,99233.44
2023-05-06T08:22:24.314Z,99231.38
2023-05-06T08:24:50.987Z,99232.34
2023-05-06T08:27:17.622Z,99231.66
2023-05-06T08:29:44.211Z,99231.06
2023-05-06T08:32:10.996Z,99230.72
2023-05-06T08:34:37.819Z,99233.22
2023-05-06T08:37:05.379Z,99233.94
2023-05-06T08:39:32.218Z,99231.34
2023-05-06T08:42:02.040Z,99229.22
2023-05-06T08:44:28.733Z,99234.69
2023-05-06T08:46:55.731Z,99235.78
2023-05-06T08:49:22.466Z,99228.03
2023-05-06T08:51:54.434Z,99231.91
2023-05-06T08:54:25.198Z,99234.56
2023-05-06T08:56:57.623Z,99231.78
2023-05-06T08:59:26.673Z,99224.09
2023-05-06T09:01:53.555Z,99234.63
2023-05-06T09:04:20.407Z,99229.06
2023-05-06T09:06:47.174Z,99231.22
2023-05-06T09:09:15.041Z,99230.66
2023-05-06T09:11:41.821Z,99232.91
2023-05-06T09:14:08.457Z,99231.88
2023-05-06T09:16:35.179Z,99227.16
2023-05-06T09:19:01.814Z,99225.06
2023-05-06T09:21:40.063Z,99231.81
2023-05-06T09:24:08.388Z,99223.78
2023-05-06T09:26:37.389Z,99221.53
2023-05-06T09:29:05.781Z,99225.72
2023-05-06T09:31:33.014Z,99228.31
2023-05-06T09:34:00.641Z,99222.75
2023-05-06T09:36:28.394Z,99220.72
2023-05-06T09:38:57.097Z,99221.25
2023-05-06T09:41:28.057Z,99223.28
2023-05-06T09:43:56.161Z,99215.88
2023-05-06T09:46:23.554Z,99212.06
2023-05-06T09:48:56.310Z,99214.09
2023-05-06T09:51:23.088Z,99218.75
2023-05-06T09:53:49.684Z,99220.50
2023-05-06T09:56:17.047Z,99216.38
2023-05-06T09:58:45.084Z,99215.38
2023-05-06T10:01:17.123Z,99213.13
2023-05-06T10:03:46.582Z,99219.72
2023-05-06T10:06:13.597Z,99207.19
2023-05-06T10:08:41.176Z,99203.28
2023-05-06T10:11:08.693Z,99201.00
2023-05-06T10:13:36.876Z,99202.31
2023-05-06T10:16:06.206Z,99201.28
2023-05-06T10:18:35.029Z,99205.59
2023-05-06T10:21:03.974Z,99204.00
2023-05-06T10:23:30.510Z,99205.19
2023-05-06T10:26:01.101Z,99210.44
2023-05-06T10:28:31.040Z,99204.72
2023-05-06T10:30:58.825Z,99204.41
2023-05-06T10:33:26.987Z,99205.34
2023-05-06T10:36:02.072Z,99196.34
2023-05-06T10:38:36.832Z,99192.88
2023-05-06T10:41:04.409Z,99186.91
2023-05-06T10:43:32.866Z,99185.66
2023-05-06T10:46:18.037Z,99187.00
2023-05-06T10:49:06.560Z,99187.16
2023-05-06T10:51:34.251Z,99177.84
2023-05-06T10:54:04.101Z,99168.09
2023-05-06T10:56:33.228Z,99169.06
2023-05-06T10:59:08.772Z,99171.47
2023-05-06T11:01:37.053Z,99172.63
2023-05-06T11:04:06.986Z,99157.09
2023-05-06T11:06:42.284Z,99161.50
2023-05-06T11:09:27.460Z,99158.16
2023-05-06T11:12:06.401Z,99158.53
2023-05-06T11:14:38.494Z,99161.03
2023-05-06T11:17:07.756Z,99161.94
2023-05-06T11:19:37.339Z,99167.63
2023-05-06T11:22:06.429Z,99168.25
2023-05-06T11:24:41.404Z,99166.25
2023-05-06T11:27:09.361Z,99160.66
2023-05-06T11:29:36.269Z,99163.88
2023-05-06T11:32:04.012Z,99161.78
2023-05-06T11:34:32.025Z,99168.72
2023-05-06T11:37:02.143Z,99161.19
2023-05-06T11:39:32.316Z,99162.75
2023-05-06T11:42:07.133Z,99161.69
2023-05-06T11:44:37.295Z,99158.00
2023-05-06T11:47:06.448Z,99164.91
2023-05-06T11:49:41.503Z,99162.00
2023-05-06T11:52:09.755Z,99165.47
2023-05-06T11:54:39.688Z,99160.97
2023-05-06T11:57:06.398Z,99158.78
2023-05-06T11:59:37.895Z,99149.84
2023-05-06T12:02:09.823Z,99147.78
2023-05-06T12:04:38.980Z,99153.63
2023-05-06T12:07:07.694Z,99148.47
2023-05-06T12:09:37.095Z,99139.59
2023-05-06T12:12:04.849Z,99147.91
2023-05-06T12:14:32.114Z,99150.50
2023-05-06T12:16:58.916Z,99149.44
2023-05-06T12:19:26.565Z,99145.19
2023-05-06T12:21:53.287Z,99142.63
2023-05-06T12:24:30.020Z,99139.94
2023-05-06T12:26:56.792Z,99144.66
2023-05-06T12:29:23.545Z,99134.81
2023-05-06T12:32:06.282Z,99140.00
2023-05-06T12:34:40.737Z,99135.50
2023-05-06T12:37:11.326Z,99132.78
2023-05-06T12:39:39.665Z,99130.41
2023-05-06T12:42:06.955Z,99128.41
2023-05-06T12:44:40.635Z,99124.66
2023-05-06T12:47:08.380Z,99128.81
2023-05-06T12:49:53.863Z,99130.97
2023-05-06T12:52:25.462Z,99130.41
2023-05-06T12:54:52.902Z,99127.56
2023-05-06T12:57:20.485Z,99132.94
2023-05-06T12:59:47.109Z,99126.47
2023-05-06T13:02:14.367Z,99126.09
2023-05-06T13:04:42.064Z,99126.13
2023-05-06T13:07:08.644Z,99124.97
2023-05-06T13:09:35.325Z,99129.41
2023-05-06T13:12:03.001Z,99126.38
2023-05-06T13:14:29.578Z,99120.91
2023-05-06T13:16:56.441Z,99119.66
2023-05-06T13:19:32.195Z,99118.72
2023-05-06T13:22:00.632Z,99114.44
2023-05-06T13:24:27.684Z,99112.91
2023-05-06T13:26:56.035Z,99105.16
2023-05-06T13:29:23.606Z,99102.34
2023-05-06T13:31:51.013Z,99103.63
2023-05-06T13:34:18.170Z,99104.03
2023-05-06T13:36:44.903Z,99104.59
2023-05-06T13:39:11.521Z,99103.25
2023-05-06T13:41:38.154Z,99106.38
2023-05-06T13:44:05.069Z,99101.94
2023-05-06T13:46:31.788Z,99090.50
2023-05-06T13:48:58.395Z,99088.94
2023-05-06T13:51:29.260Z,99087.97
2023-05-06T13:53:55.937Z,99087.19
2023-05-06T13:56:22.596Z,99079.81
2023-05-06T13:58:49.251Z,99081.41
2023-05-06T14:01:15.975Z,99080.84
2023-05-06T14:03:42.555Z,99071.97
2023-05-06T14:06:09.402Z,99072.16
2023-05-06T14:08:36.101Z,99069.91
2023-05-06T14:11:02.986Z,99070.72
2023-05-06T14:13:31.588Z,99071.75
2023-05-06T14:15:58.791Z,99065.59
2023-05-06T14:18:26.731Z,99062.19
2023-05-06T14:20:53.815Z,99059.25
2023-05-06T14:23:20.479Z,99055.47
2023-05-06T14:25:47.131Z,99054.63
2023-05-06T14:28:14.343Z,99050.50
2023-05-06T14:30:41.340Z,99044.41
2023-05-06T14:33:09.546Z,99045.16
2023-05-06T14:35:36.301Z,99051.81
2023-05-06T14:38:03.222Z,99048.28
2023-05-06T14:40:30.246Z,99039.84
2023-05-06T14:42:56.825Z,99045.88
2023-05-06T14:45:23.407Z,99049.97
2023-05-06T14:47:50.081Z,99044.16
2023-05-06T14:50:16.781Z,99039.09
2023-05-06T14:52:43.762Z,99036.72
2023-05-06T14:55:11.637Z,99040.50
2023-05-06T14:57:38.489Z,99037.69
2023-05-06T15:00:08.935Z,99036.56
2023-05-06T15:02:38.164Z,99033.63
2023-05-06T15:05:05.220Z,99029.56
2023-05-06T15:07:31.964Z,99026.31
2023-05-06T15:09:58.602Z,99032.78
2023-05-06T15:12:25.244Z,99031.66
2023-05-06T15:14:51.839Z,99028.97
2023-05-06T15:17:18.412Z,99026.97
2023-05-06T15:19:44.987Z,99029.69
2023-05-06T15:22:11.723Z,99033.59
2023-05-06T15:24:38.773Z,99033.47
2023-05-06T15:27:05.797Z,99039.47
2023-05-06T15:29:32.511Z,99035.97
2023-05-06T15:32:00.762Z,99037.69
2023-05-06T15:34:27.699Z,99036.38
2023-05-06T15:36:54.543Z,99038.50
2023-05-06T15:39:22.361Z,99033.41
2023-05-06T15:41:49.385Z,99037.22
2023-05-06T15:44:16.543Z,99037.94
2023-05-06T15:46:43.646Z,99036.97
2023-05-06T15:49:29.662Z,99039.81
2023-05-06T15:52:00.531Z,99031.78
2023-05-06T15:54:28.137Z,99030.38
2023-05-06T15:56:54.977Z,99028.41
2023-05-06T15:59:24.020Z,99034.91
2023-05-06T16:02:25.367Z,99029.84
2023-05-06T16:04:38.255Z,99038.28
2023-05-06T16:07:05.739Z,99029.91
2023-05-06T16:09:35.854Z,99031.50
2023-05-06T16:12:03.050Z,99031.94
2023-05-06T16:14:30.550Z,99029.25
2023-05-06T16:16:58.471Z,99037.78
2023-05-06T16:19:26.204Z,99034.44
2023-05-06T16:21:53.444Z,99026.88
2023-05-06T16:24:20.328Z,99030.97
2023-05-06T16:26:47.468Z,99030.13
2023-05-06T16:29:17.317Z,99028.13
2023-05-06T16:31:44.053Z,99028.56
2023-05-06T16:34:11.229Z,99027.88
2023-05-06T16:36:38.745Z,99029.69
2023-05-06T16:39:08.368Z,99032.59
2023-05-06T16:41:35.442Z,99034.44
2023-05-06T16:44:02.490Z,99028.81
2023-05-06T16:46:29.487Z,99023.75
2023-05-06T16:48:56.562Z,99021.78
2023-05-06T16:51:23.800Z,99026.84
2023-05-06T16:53:51.163Z,99026.97
2023-05-06T16:56:18.134Z,99029.94
2023-05-06T16:58:44.831Z,99028.25
2023-05-06T17:01:11.845Z,99028.91
2023-05-06T17:03:39.181Z,99026.09
2023-05-06T17:06:06.164Z,99029.09
2023-05-06T17:08:36.423Z,99040.00
2023-05-06T17:11:07.204Z,99036.44
2023-05-06T17:13:34.531Z,99030.88
2023-05-06T17:16:01.374Z,99034.06
2023-05-06T17:18:28.290Z,99035.38
2023-05-06T17:20:56.571Z,99032.81
2023-05-06T17:23:24.590Z,99036.78
2023-05-06T17:25:51.770Z,99032.63
2023-05-06T17:28:19.000Z,99035.53
2023-05-06T17:30:46.469Z,99032.25
2023-05-06T17:33:13.489Z,99041.16
2023-05-06T17:35:40.285Z,99034.84
2023-05-06T17:39:00.577Z,99036.66
2023-05-06T17:41:28.089Z,99037.03
2023-05-06T17:43:54.789Z,99035.59
2023-05-06T17:46:21.852Z,99031.28
2023-05-06T17:48:49.176Z,99033.78
2023-05-06T17:51:16.214Z,99036.19
2023-05-06T17:53:43.235Z,99036.91
2023-05-06T17:56:10.078Z,99039.38
2023-05-06T17:58:37.076Z,99045.56
2023-05-06T18:01:04.316Z,99046.56
2023-05-06T18:03:31.298Z,99044.72
2023-05-06T18:05:58.397Z,99042.94
2023-05-06T18:08:25.266Z,99050.09
2023-05-06T18:10:52.069Z,99047.97
2023-05-06T18:13:18.860Z,99048.72
2023-05-06T18:15:45.668Z,99050.69
2023-05-06T18:18:12.510Z,99056.72
2023-05-06T18:20:39.968Z,99051.41
2023-05-06T18:23:07.972Z,99053.66
2023-05-06T18:25:34.978Z,99054.38
2023-05-06T18:28:02.454Z,99048.72
2023-05-06T18:30:29.687Z,99051.63
2023-05-06T18:32:56.815Z,99059.38
2023-05-06T18:35:23.949Z,99060.09
2023-05-06T18:37:50.920Z,99056.78
2023-05-06T18:40:17.883Z,99056.81
2023-05-06T18:42:44.564Z,99067.59
2023-05-06T18:45:12.109Z,99062.69
2023-05-06T18:47:40.293Z,99065.41
2023-05-06T18:50:08.878Z,99067.94
2023-05-06T18:52:38.801Z,99071.84
2023-05-06T18:55:06.007Z,99070.72
2023-05-06T18:57:33.404Z,99080.06
2023-05-06T19:00:00.443Z,99079.66
2023-05-06T19:02:27.800Z,99074.81
2023-05-06T19:04:54.782Z,99081.81
2023-05-06T19:07:21.513Z,99074.41
2023-05-06T19:09:48.671Z,99074.06
2023-05-06T19:12:15.932Z,99077.78
2023-05-06T19:14:42.645Z,99080.69
2023-05-06T19:17:09.636Z,99074.97
2023-05-06T19:19:36.458Z,99078.66
2023-05-06T19:22:04.199Z,99077.69
2023-05-06T19:24:31.313Z,99081.31
2023-05-06T19:26:58.190Z,99077.50
2023-05-06T19:29:25.000Z,99079.41
2023-05-06T19:31:51.769Z,99077.44
2023-05-06T19:34:18.519Z,99086.25
2023-05-06T19:36:45.591Z,99074.34
2023-05-06T19:39:12.734Z,99082.53
2023-05-06T19:41:40.717Z,99086.16
2023-05-06T19:44:08.596Z,99083.75
2023-05-06T19:46:35.651Z,99083.75
2023-05-06T19:49:02.965Z,99099.31
2023-05-06T19:51:30.234Z,99092.13
2023-05-06T19:54:09.559Z,99092.94
2023-05-06T19:56:39.325Z,99088.09
2023-05-06T19:59:06.196Z,99092.13
2023-05-06T20:01:32.732Z,99097.00
2023-05-06T20:03:59.519Z,99099.25
2023-05-06T20:06:26.201Z,99106.97
2023-05-06T20:08:52.872Z,99098.19
2023-05-06T20:11:19.470Z,99102.22
2023-05-06T20:13:46.092Z,99100.41
2023-05-06T20:16:12.941Z,99103.06
2023-05-06T20:18:40.574Z,99096.81
2023-05-06T20:21:07.398Z,99108.03
2023-05-06T20:23:34.162Z,99109.13
2023-05-06T20:26:00.952Z,99100.63
2023-05-06T20:28:27.623Z,99099.03
2023-05-06T20:30:55.568Z,99102.66
2023-05-06T20:33:22.259Z,99101.38
2023-05-06T20:35:48.920Z,99111.13
2023-05-06T20:38:16.940Z,99105.19
2023-05-06T20:40:43.622Z,99107.53
2023-05-06T20:43:10.457Z,99106.69
2023-05-06T20:45:37.176Z,99110.16
2023-05-06T20:48:03.984Z,99104.84
2023-05-06T20:50:31.327Z,99105.28
2023-05-06T20:52:58.881Z,99104.28
2023-05-06T20:55:25.830Z,99103.69
2023-05-06T20:57:52.637Z,99093.59
2023-05-06T21:00:19.567Z,99090.63
2023-05-06T21:02:46.357Z,99093.16
2023-05-06T21:05:13.499Z,99093.41
2023-05-06T21:07:40.609Z,99095.91
2023-05-06T21:10:07.553Z,99097.06
2023-05-06T21:12:34.304Z,99109.69
2023-05-06T21:15:01.229Z,99103.34
2023-05-06T21:17:28.744Z,99107.06
2023-05-06T21:19:55.577Z,99107.03
2023-05-06T21:22:24.100Z,99104.75
2023-05-06T21:24:51.100Z,99113.63
2023-05-06T21:27:18.213Z,99113.72
2023-05-06T21:29:44.838Z,99112.25
2023-05-06T21:32:11.654Z,99116.56
2023-05-06T21:34:38.347Z,99113.16
2023-05-06T21:37:05.003Z,99110.44
2023-05-06T21:39:31.590Z,99107.78
2023-05-06T21:41:58.235Z,99112.28
2023-05-06T21:44:24.883Z,99113.31
2023-05-06T21:46:51.560Z,99109.50
2023-05-06T21:49:19.378Z,99107.03
2023-05-06T21:51:46.024Z,99105.84
2023-05-06T21:54:12.909Z,99111.19
2023-05-06T21:56:39.619Z,99117.97
2023-05-06T21:59:07.848Z,99116.41
2023-05-06T22:01:36.272Z,99115.13
2023-05-06T22:04:04.875Z,99119.75
2023-05-06T22:06:31.617Z,99114.63
2023-05-06T22:08:58.263Z,99109.31
2023-05-06T22:11:25.026Z,99114.25
2023-05-06T22:13:51.821Z,99118.66
2023-05-06T22:16:18.534Z,99114.91
2023-05-06T22:18:45.215Z,99117.56
2023-05-06T22:25:38.323Z,99100.06
2023-05-06T22:28:05.712Z,99102.78
2023-05-06T22:30:32.322Z,99100.88
2023-05-06T22:32:58.896Z,99103.59
2023-05-06T22:35:25.752Z,99104.13
2023-05-06T22:37:52.353Z,99095.41
2023-05-06T22:40:19.014Z,99103.25
2023-05-06T22:42:46.043Z,99100.59
2023-05-06T22:45:12.850Z,99107.53
2023-05-06T22:47:39.681Z,99100.16
2023-05-06T22:50:07.046Z,99108.56
2023-05-06T22:52:34.078Z,99108.06
2023-05-06T22:55:00.849Z,99112.91
2023-05-06T22:57:27.581Z,99103.91
2023-05-06T22:59:54.266Z,99104.56
2023-05-06T23:02:21.665Z,99104.31
2023-05-06T23:04:48.523Z,99109.00
2023-05-06T23:07:15.624Z,99102.47
2023-05-06T23:09:42.248Z,99109.16
2023-05-06T23:12:08.806Z,99100.75
2023-05-06T23:14:35.479Z,99111.78
2023-05-06T23:17:02.199Z,99106.25
2023-05-06T23:19:28.832Z,99109.75
2023-05-06T23:21:56.350Z,99100.88
2023-05-06T23:24:22.967Z,99100.09
2023-05-06T23:26:49.610Z,99096.94
2023-05-06T23:29:16.200Z,99106.44
2023-05-06T23:31:42.787Z,99101.56
2023-05-06T23:34:09.334Z,99107.22
2023-05-06T23:36:35.998Z,99100.41
2023-05-06T23:39:02.625Z,99101.25
2023-05-06T23:41:29.201Z,99107.41
2023-05-06T23:43:55.819Z,99106.50
2023-05-06T23:46:22.408Z,99107.19
2023-05-06T23:48:49.274Z,99119.41
2023-05-06T23:51:16.264Z,99108.50
2023-05-06T23:53:42.827Z,99114.66
2023-05-06T23:56:09.590Z,99130.28
2023-05-06T23:58:36.192Z,99114.56
